Time;durP1;ratioP1;P1;durP2;ratioP2;P2;SDS_P1;SDS_P2;PMS_P1;PMS_P2;Temp;Humidity;BMP_temperature;BMP_pressure;BME280_temperature;BME280_humidity;BME280_pressure;Samples;Min_cycle;Max_cycle;Signal;HPM_P1;HPM_P2
2021/09/03 00:00:54;;;;;;;;;;;;;;;9.53;66.22;98703.03;4957981;28;19926;-93
2021/09/03 00:03:20;;;;;;;;;;;;;;;9.50;66.67;98701.75;4948620;29;20029;-92
2021/09/03 00:05:45;;;;;;;;;;;;;;;9.46;66.96;98700.78;4938251;29;19926;-94
2021/09/03 00:08:13;;;;;;;;;;;;;;;9.45;66.94;98699.19;4922892;29;20384;-92
2021/09/03 00:10:39;;;;;;;;;;;;;;;9.44;67.21;98688.59;4938188;29;19962;-92
2021/09/03 00:13:05;;;;;;;;;;;;;;;9.41;66.76;98696.31;4945617;28;20423;-91
2021/09/03 00:15:31;;;;;;;;;;;;;;;9.36;66.94;98684.75;4941524;28;19922;-92
2021/09/03 00:17:56;;;;;;;;;;;;;;;9.35;67.06;98681.22;4945714;29;20379;-95
2021/09/03 00:20:22;;;;;;;;;;;;;;;9.34;66.93;98685.09;4938426;29;20288;-95
2021/09/03 00:22:50;;;;;;;;;;;;;;;9.26;67.75;98685.06;4937876;29;19928;-92
2021/09/03 00:25:16;;;;;;;;;;;;;;;9.22;67.99;98684.91;4938125;29;19927;-94
2021/09/03 00:27:43;;;;;;;;;;;;;;;9.16;68.01;98681.53;4953912;29;19962;-93
2021/09/03 00:30:09;;;;;;;;;;;;;;;9.15;68.92;98677.19;4922339;28;19926;-92
2021/09/03 00:32:35;;;;;;;;;;;;;;;9.08;69.47;98682.31;4957209;28;19954;-91
2021/09/03 00:35:02;;;;;;;;;;;;;;;8.99;69.88;98681.50;4957217;28;19926;-94
2021/09/03 00:37:28;;;;;;;;;;;;;;;8.98;70.03;98681.81;4953934;28;20041;-94
2021/09/03 00:39:53;;;;;;;;;;;;;;;8.89;70.28;98676.34;4937464;29;20412;-93
2021/09/03 00:42:21;;;;;;;;;;;;;;;8.89;70.30;98670.91;4942277;29;19927;-92
2021/09/03 00:44:47;;;;;;;;;;;;;;;8.87;70.50;98671.22;4953817;29;19926;-90
2021/09/03 00:47:14;;;;;;;;;;;;;;;8.83;70.59;98669.44;4945430;28;20361;-92
2021/09/03 00:49:40;;;;;;;;;;;;;;;8.84;70.78;98671.84;4972393;28;19958;-91
2021/09/03 00:52:06;;;;;;;;;;;;;;;8.80;70.88;98678.25;4960015;28;19934;-94
2021/09/03 00:54:32;;;;;;;;;;;;;;;8.69;71.25;98675.81;4953630;28;19945;-92
2021/09/03 00:56:58;;;;;;;;;;;;;;;8.69;71.48;98675.81;4937645;29;20399;-95
2021/09/03 00:59:24;;;;;;;;;;;;;;;8.64;71.18;98664.25;4937571;29;20002;-92
2021/09/03 01:01:50;;;;;;;;;;;;;;;8.63;71.38;98663.44;4953671;29;20025;-90
2021/09/03 01:04:16;;;;;;;;;;;;;;;8.67;71.32;98663.63;4969963;28;20028;-92
2021/09/03 01:06:43;;;;;;;;;;;;;;;8.63;71.54;98657.19;4956654;28;19926;-93
2021/09/03 01:09:09;;;;;;;;;;;;;;;8.69;71.29;98658.66;4972312;28;19926;-91
2021/09/03 01:11:35;;;;;;;;;;;;;;;8.67;71.11;98650.00;4967760;28;19926;-93
2021/09/03 01:14:04;;;;;;;;;;;;;;;8.63;71.50;98644.38;4938409;29;19977;-93
2021/09/03 01:16:32;;;;;;;;;;;;;;;8.64;71.18;98647.91;4953423;29;19926;-92
2021/09/03 01:18:58;;;;;;;;;;;;;;;8.64;71.12;98645.19;4972282;28;19973;-92
2021/09/03 01:21:24;;;;;;;;;;;;;;;8.61;71.37;98637.63;4945366;28;19933;-91
2021/09/03 01:23:50;;;;;;;;;;;;;;;8.59;71.32;98631.72;4940262;28;19933;-92
2021/09/03 01:26:17;;;;;;;;;;;;;;;8.61;71.41;98627.56;4972659;28;20025;-91
2021/09/03 01:28:46;;;;;;;;;;;;;;;8.56;71.56;98627.69;4972576;28;20020;-92
2021/09/03 01:31:12;;;;;;;;;;;;;;;8.52;71.89;98626.72;4986150;28;20391;-91
2021/09/03 01:33:38;;;;;;;;;;;;;;;8.50;71.55;98617.25;4940423;28;19922;-92
2021/09/03 01:36:16;;;;;;;;;;;;;;;8.47;71.51;98619.50;4972570;28;19933;-92
2021/09/03 01:38:43;;;;;;;;;;;;;;;8.50;71.61;98614.53;4956663;28;20315;-92
2021/09/03 01:41:08;;;;;;;;;;;;;;;8.51;71.48;98619.69;4971996;28;19970;-94
2021/09/03 01:43:35;;;;;;;;;;;;;;;8.53;71.40;98617.44;4972608;28;19926;-92
2021/09/03 01:46:01;;;;;;;;;;;;;;;8.45;71.79;98615.50;4923655;29;20312;-93
2021/09/03 01:48:27;;;;;;;;;;;;;;;8.35;72.36;98626.66;4953298;29;20000;-91
2021/09/03 01:50:53;;;;;;;;;;;;;;;8.26;72.48;98620.38;4967320;28;20384;-92
2021/09/03 01:53:19;;;;;;;;;;;;;;;8.21;72.92;98619.41;4954989;28;20296;-91
2021/09/03 01:55:45;;;;;;;;;;;;;;;8.21;73.25;98613.13;4954305;28;19927;-94
2021/09/03 01:58:11;;;;;;;;;;;;;;;8.18;73.00;98613.78;4954209;28;19969;-92
2021/09/03 02:00:37;;;;;;;;;;;;;;;8.19;72.71;98604.47;4936870;29;20016;-95
2021/09/03 02:03:04;;;;;;;;;;;;;;;8.17;73.11;98612.94;4968184;28;19926;-92
2021/09/03 02:05:29;;;;;;;;;;;;;;;8.17;73.24;98602.06;4956042;28;19930;-91
2021/09/03 02:07:56;;;;;;;;;;;;;;;8.15;73.04;98608.97;4949484;28;19958;-90
2021/09/03 02:10:22;;;;;;;;;;;;;;;8.19;72.65;98599.03;4940074;29;20463;-95
2021/09/03 02:12:48;;;;;;;;;;;;;;;8.13;72.84;98606.53;4940336;29;19926;-91
2021/09/03 02:15:13;;;;;;;;;;;;;;;8.14;73.16;98610.06;4924390;29;19923;-91
2021/09/03 02:17:39;;;;;;;;;;;;;;;8.12;73.07;98609.59;4956280;29;19934;-91
2021/09/03 02:20:05;;;;;;;;;;;;;;;8.15;72.88;98608.97;4967720;28;19933;-91
2021/09/03 02:22:31;;;;;;;;;;;;;;;8.16;73.13;98614.06;4959468;28;19977;-94
2021/09/03 02:24:57;;;;;;;;;;;;;;;8.13;72.97;98592.91;4975279;28;19930;-93
2021/09/03 02:27:24;;;;;;;;;;;;;;;8.17;72.64;98591.16;4959339;28;20554;-96
2021/09/03 02:29:50;;;;;;;;;;;;;;;8.17;72.88;98588.44;4959315;28;20033;-92
2021/09/03 02:32:19;;;;;;;;;;;;;;;8.11;73.00;98587.00;4975410;28;19989;-92
2021/09/03 02:34:45;;;;;;;;;;;;;;;8.09;73.20;98589.22;4976475;28;20307;-91
2021/09/03 02:37:11;;;;;;;;;;;;;;;8.03;73.46;98587.75;4975285;28;19933;-94
2021/09/03 02:39:37;;;;;;;;;;;;;;;8.04;73.44;98581.19;4959092;28;20403;-93
2021/09/03 02:42:03;;;;;;;;;;;;;;;8.02;73.43;98577.19;4975295;28;19938;-91
2021/09/03 02:44:29;;;;;;;;;;;;;;;8.02;73.37;98579.91;4971909;28;20024;-92
2021/09/03 02:46:55;;;;;;;;;;;;;;;7.97;73.71;98581.66;4952355;28;19933;-95
2021/09/03 02:49:20;;;;;;;;;;;;;;;8.00;73.59;98574.78;4958882;28;19926;-92
2021/09/03 02:51:47;;;;;;;;;;;;;;;7.97;73.60;98578.91;4957015;28;19953;-93
2021/09/03 02:54:13;;;;;;;;;;;;;;;7.98;73.48;98569.66;4972383;28;20001;-91
2021/09/03 02:56:39;;;;;;;;;;;;;;;7.99;73.57;98565.81;4955593;29;19933;-91
2021/09/03 02:59:04;;;;;;;;;;;;;;;7.96;73.42;98576.53;4939610;29;20385;-91
2021/09/03 03:01:30;;;;;;;;;;;;;;;7.93;73.73;98564.34;4955151;28;19931;-93
2021/09/03 03:03:56;;;;;;;;;;;;;;;7.91;73.71;98574.75;4939368;29;19927;-91
2021/09/03 03:06:24;;;;;;;;;;;;;;;7.89;73.83;98557.13;4923955;29;19926;-91
2021/09/03 03:08:49;;;;;;;;;;;;;;;7.99;73.76;98556.84;4963299;28;19977;-93
2021/09/03 03:11:17;;;;;;;;;;;;;;;7.97;73.78;98561.78;4958117;28;19972;-93
2021/09/03 03:13:47;;;;;;;;;;;;;;;7.94;73.84;98555.06;4958560;28;19926;-91
2021/09/03 03:16:14;;;;;;;;;;;;;;;7.92;74.15;98560.03;4942794;28;19981;-96
2021/09/03 03:18:40;;;;;;;;;;;;;;;7.92;74.26;98570.13;4974519;28;19929;-92
2021/09/03 03:21:06;;;;;;;;;;;;;;;7.88;74.33;98552.78;4958393;28;19955;-93
2021/09/03 03:23:32;;;;;;;;;;;;;;;7.91;74.44;98557.59;4974314;28;19981;-92
2021/09/03 03:25:59;;;;;;;;;;;;;;;7.99;74.40;98546.75;4974306;28;19933;-96
2021/09/03 03:28:25;;;;;;;;;;;;;;;7.98;74.01;98541.66;4957759;28;20364;-90
2021/09/03 03:30:50;;;;;;;;;;;;;;;8.02;74.24;98537.16;4973587;28;19957;-90
2021/09/03 03:33:16;;;;;;;;;;;;;;;7.99;74.04;98532.34;4941341;28;19941;-88
2021/09/03 03:35:44;;;;;;;;;;;;;;;8.09;74.19;98531.28;4973102;28;19933;-88
2021/09/03 03:38:10;;;;;;;;;;;;;;;8.15;73.93;98530.00;4965736;28;19930;-89
2021/09/03 03:40:37;;;;;;;;;;;;;;;8.20;73.93;98517.03;4973119;28;19937;-88
2021/09/03 03:43:02;;;;;;;;;;;;;;;8.19;73.92;98515.44;4973021;28;19926;-88
2021/09/03 03:45:30;;;;;;;;;;;;;;;8.19;73.51;98510.00;4972394;28;19989;-88
2021/09/03 03:47:56;;;;;;;;;;;;;;;8.20;73.61;98505.34;4955906;28;19966;-86
2021/09/03 03:50:22;;;;;;;;;;;;;;;8.21;73.58;98502.31;4969534;28;19926;-88
2021/09/03 03:52:48;;;;;;;;;;;;;;;8.20;73.64;98505.34;4966007;28;19946;-87
2021/09/03 03:55:14;;;;;;;;;;;;;;;8.27;73.78;98494.78;4971330;28;20016;-87
2021/09/03 03:57:40;;;;;;;;;;;;;;;8.32;74.26;98497.38;4966613;28;19973;-86
2021/09/03 04:00:06;;;;;;;;;;;;;;;8.38;73.70;98489.91;4956231;28;19930;-87
2021/09/03 04:02:32;;;;;;;;;;;;;;;8.42;73.88;98486.19;4958787;28;19926;-88
2021/09/03 04:04:59;;;;;;;;;;;;;;;8.42;73.26;98482.69;4972543;28;19926;-88
2021/09/03 04:07:25;;;;;;;;;;;;;;;8.38;73.33;98481.72;4946413;28;19992;-90
2021/09/03 04:09:51;;;;;;;;;;;;;;;8.32;73.67;98478.31;4962286;28;19926;-90
2021/09/03 04:12:17;;;;;;;;;;;;;;;8.46;73.60;98479.00;4937883;28;20415;-88
2021/09/03 04:14:43;;;;;;;;;;;;;;;8.50;73.31;98479.16;4961713;28;19930;-91
2021/09/03 04:17:09;;;;;;;;;;;;;;;8.57;73.32;98479.47;4936796;28;19926;-92
2021/09/03 04:19:35;;;;;;;;;;;;;;;8.64;73.05;98465.38;4938859;28;19926;-93
2021/09/03 04:22:01;;;;;;;;;;;;;;;8.73;73.20;98465.38;4961282;28;20288;-93
2021/09/03 04:24:28;;;;;;;;;;;;;;;8.88;72.79;98454.78;4952481;28;19926;-91
2021/09/03 04:26:54;;;;;;;;;;;;;;;9.04;72.25;98455.09;4956470;28;19934;-92
2021/09/03 04:29:19;;;;;;;;;;;;;;;9.25;71.81;98441.56;4972194;28;19937;-89
2021/09/03 04:31:45;;;;;;;;;;;;;;;9.54;72.31;98437.28;4971712;28;19929;-85
2021/09/03 04:34:12;;;;;;;;;;;;;;;9.74;70.76;98431.09;4972009;28;19926;-86
2021/09/03 04:36:37;;;;;;;;;;;;;;;9.89;70.03;98432.44;4961527;28;19960;-81
2021/09/03 04:39:03;;;;;;;;;;;;;;;10.02;70.00;98431.41;4953813;29;19926;-82
2021/09/03 04:41:29;;;;;;;;;;;;;;;10.12;69.43;98419.28;4954133;28;19930;-90
2021/09/03 04:43:56;;;;;;;;;;;;;;;10.05;68.87;98421.75;4962508;28;20032;-91
2021/09/03 04:46:22;;;;;;;;;;;;;;;10.01;69.36;98416.16;4939992;28;20012;-91
2021/09/03 04:48:48;;;;;;;;;;;;;;;9.91;68.99;98408.34;4972297;28;20021;-89
2021/09/03 04:51:13;;;;;;;;;;;;;;;9.99;69.15;98406.69;4955599;28;19933;-89
2021/09/03 04:53:40;;;;;;;;;;;;;;;9.96;68.83;98410.09;4956194;28;20343;-89
2021/09/03 04:56:06;;;;;;;;;;;;;;;10.00;69.12;98402.81;4954711;28;19926;-90
2021/09/03 04:58:32;;;;;;;;;;;;;;;10.03;68.70;98397.53;4972537;28;19926;-88
2021/09/03 05:00:58;;;;;;;;;;;;;;;10.02;69.08;98411.50;4971232;28;20362;-93
2021/09/03 05:03:23;;;;;;;;;;;;;;;10.10;69.09;98414.19;4971303;28;20023;-90
2021/09/03 05:05:49;;;;;;;;;;;;;;;10.10;67.52;98411.44;4954797;28;19930;-89
2021/09/03 05:08:17;;;;;;;;;;;;;;;10.15;68.47;98413.19;4970659;28;19977;-93
2021/09/03 05:10:42;;;;;;;;;;;;;;;10.11;68.24;98418.50;4953934;28;19930;-90
2021/09/03 05:13:08;;;;;;;;;;;;;;;10.23;68.13;98406.03;4951335;29;19926;-90
2021/09/03 05:15:36;;;;;;;;;;;;;;;10.25;67.78;98406.53;4951097;29;19949;-91
2021/09/03 05:18:03;;;;;;;;;;;;;;;10.33;67.41;98405.66;4962101;28;20384;-91
2021/09/03 05:20:29;;;;;;;;;;;;;;;10.40;67.45;98408.69;4953522;28;19926;-91
2021/09/03 05:22:56;;;;;;;;;;;;;;;10.44;67.82;98412.34;4954150;28;19944;-91
2021/09/03 05:25:23;;;;;;;;;;;;;;;10.48;66.80;98404.28;4969179;28;19961;-90
2021/09/03 05:27:49;;;;;;;;;;;;;;;10.57;66.58;98400.34;4953643;28;20299;-89
2021/09/03 05:30:15;;;;;;;;;;;;;;;10.68;66.19;98395.25;4968002;28;20463;-90
2021/09/03 05:32:41;;;;;;;;;;;;;;;10.69;65.50;98390.59;4970265;28;20013;-90
2021/09/03 05:35:07;;;;;;;;;;;;;;;10.75;65.75;98392.78;4968902;28;19933;-89
2021/09/03 05:37:34;;;;;;;;;;;;;;;10.77;65.44;98371.38;4968868;28;20604;-94
2021/09/03 05:40:01;;;;;;;;;;;;;;;10.83;64.86;98377.44;4969488;28;19976;-90
2021/09/03 05:42:27;;;;;;;;;;;;;;;10.88;65.25;98374.47;4953838;28;19969;-92
2021/09/03 05:44:53;;;;;;;;;;;;;;;11.04;65.58;98377.38;4972220;28;19926;-91
2021/09/03 05:47:19;;;;;;;;;;;;;;;11.08;64.71;98378.28;4955563;28;19933;-90
2021/09/03 05:49:45;;;;;;;;;;;;;;;11.05;64.43;98368.00;4971262;28;19926;-90
2021/09/03 05:52:11;;;;;;;;;;;;;;;11.09;64.72;98368.13;4972210;28;19926;-90
2021/09/03 05:54:36;;;;;;;;;;;;;;;11.24;65.18;98359.28;4955225;28;19937;-90
2021/09/03 05:57:04;;;;;;;;;;;;;;;11.38;64.67;98346.06;4955245;28;19976;-91
2021/09/03 05:59:30;;;;;;;;;;;;;;;11.40;64.65;98349.25;4971172;28;20089;-90
2021/09/03 06:01:58;;;;;;;;;;;;;;;11.54;64.22;98343.44;4954547;28;19930;-91
2021/09/03 06:04:23;;;;;;;;;;;;;;;11.70;63.54;98336.13;4954371;28;19926;-91
2021/09/03 06:06:49;;;;;;;;;;;;;;;11.69;62.68;98337.28;4954780;28;20029;-91
2021/09/03 06:09:15;;;;;;;;;;;;;;;11.71;62.46;98336.91;4954177;28;19922;-90
2021/09/03 06:11:42;;;;;;;;;;;;;;;11.89;63.17;98335.56;4953548;28;19932;-90
2021/09/03 06:14:09;;;;;;;;;;;;;;;12.01;62.66;98317.47;4970212;28;19926;-90
2021/09/03 06:16:37;;;;;;;;;;;;;;;12.06;62.51;98318.06;4969789;28;20398;-90
2021/09/03 06:19:03;;;;;;;;;;;;;;;12.15;63.15;98315.16;4968606;28;19926;-93
2021/09/03 06:21:29;;;;;;;;;;;;;;;12.18;61.95;98309.78;4968243;28;19926;-92
2021/09/03 06:23:55;;;;;;;;;;;;;;;12.25;62.36;98297.44;4936455;28;20021;-90
2021/09/03 06:26:21;;;;;;;;;;;;;;;12.23;62.49;98301.31;4969666;28;20400;-93
2021/09/03 06:28:46;;;;;;;;;;;;;;;12.20;61.94;98290.25;4966677;28;19922;-81
2021/09/03 06:31:13;;;;;;;;;;;;;;;12.16;62.07;98292.13;4961009;28;19926;-81
2021/09/03 06:33:39;;;;;;;;;;;;;;;12.44;61.97;98278.38;4967309;28;19926;-80
2021/09/03 06:36:05;;;;;;;;;;;;;;;12.31;61.32;98283.13;4966783;28;19926;-82
2021/09/03 06:38:31;;;;;;;;;;;;;;;12.22;60.79;98277.81;4965747;28;19922;-84
2021/09/03 06:40:59;;;;;;;;;;;;;;;12.25;61.39;98279.06;4964959;28;19925;-83
2021/09/03 06:43:25;;;;;;;;;;;;;;;12.19;60.36;98272.25;4966382;28;20395;-84
2021/09/03 06:45:51;;;;;;;;;;;;;;;12.27;60.17;98271.28;4966083;28;19926;-83
2021/09/03 06:48:21;;;;;;;;;;;;;;;12.35;61.26;98256.63;4965838;28;19934;-84
2021/09/03 06:50:47;;;;;;;;;;;;;;;12.39;59.30;98246.56;4966212;28;19957;-92
2021/09/03 06:53:13;;;;;;;;;;;;;;;12.32;59.97;98232.69;4964425;28;19984;-88
2021/09/03 06:55:39;;;;;;;;;;;;;;;12.40;60.68;98237.19;4964928;28;19925;-78
2021/09/03 06:58:05;;;;;;;;;;;;;;;12.46;60.13;98233.03;4964954;28;19933;-80
2021/09/03 07:00:31;;;;;;;;;;;;;;;12.52;59.51;98222.63;4965489;28;19926;-93
2021/09/03 07:03:00;;;;;;;;;;;;;;;12.54;58.76;98216.78;4933529;28;19933;-92
2021/09/03 07:05:28;;;;;;;;;;;;;;;12.55;59.48;98216.44;4965364;28;19937;-91
2021/09/03 07:07:54;;;;;;;;;;;;;;;12.66;60.45;98213.97;4963980;28;20111;-77
2021/09/03 07:10:19;;;;;;;;;;;;;;;12.82;60.77;98217.50;4963423;28;20311;-80
2021/09/03 07:12:45;;;;;;;;;;;;;;;12.85;59.00;98207.78;4963776;28;20025;-81
2021/09/03 07:15:11;;;;;;;;;;;;;;;12.99;58.91;98208.09;4963376;28;19949;-80
2021/09/03 07:17:37;;;;;;;;;;;;;;;13.15;58.63;98208.88;4963625;28;20682;-85
2021/09/03 07:20:03;;;;;;;;;;;;;;;13.14;58.30;98199.06;4962350;28;20108;-81
2021/09/03 07:22:29;;;;;;;;;;;;;;;13.25;58.86;98184.81;4963072;28;19926;-80
2021/09/03 07:24:55;;;;;;;;;;;;;;;13.48;57.90;98195.91;4961185;28;20021;-81
2021/09/03 07:27:21;;;;;;;;;;;;;;;13.58;57.50;98198.09;4962567;28;19926;-81
2021/09/03 07:29:47;;;;;;;;;;;;;;;13.67;56.55;98182.16;4961861;28;20454;-83
2021/09/03 07:32:12;;;;;;;;;;;;;;;13.81;56.80;98179.72;4962161;28;19973;-82
2021/09/03 07:34:39;;;;;;;;;;;;;;;13.98;56.32;98172.19;4944335;28;19933;-81
2021/09/03 07:37:05;;;;;;;;;;;;;;;14.07;55.34;98170.00;4961669;28;19926;-79
2021/09/03 07:39:31;;;;;;;;;;;;;;;14.10;56.31;98159.09;4961664;28;20158;-81
2021/09/03 07:41:57;;;;;;;;;;;;;;;14.15;53.57;98154.44;4960941;28;20370;-82
2021/09/03 07:44:24;;;;;;;;;;;;;;;14.20;54.31;98162.38;4960436;28;19941;-81
2021/09/03 07:46:50;;;;;;;;;;;;;;;14.24;53.07;98157.75;4961048;28;19930;-80
2021/09/03 07:49:17;;;;;;;;;;;;;;;14.15;52.49;98138.75;4960495;28;20490;-83
2021/09/03 07:51:43;;;;;;;;;;;;;;;14.26;54.03;98147.97;4960176;28;19926;-81
2021/09/03 07:54:10;;;;;;;;;;;;;;;14.36;52.48;98137.53;4959992;28;20068;-82
2021/09/03 07:56:36;;;;;;;;;;;;;;;14.41;54.17;98132.53;4960382;28;20363;-82
2021/09/03 07:59:03;;;;;;;;;;;;;;;14.38;53.23;98136.00;4959000;28;19933;-81
2021/09/03 08:01:30;;;;;;;;;;;;;;;14.34;53.31;98127.72;4941937;28;19997;-81
2021/09/03 08:03:55;;;;;;;;;;;;;;;14.33;53.17;98123.34;4958517;28;19926;-80
2021/09/03 08:06:21;;;;;;;;;;;;;;;14.35;52.07;98120.25;4958553;28;19949;-81
2021/09/03 08:08:47;;;;;;;;;;;;;;;14.54;52.84;98120.22;4959030;28;20009;-81
2021/09/03 08:11:13;;;;;;;;;;;;;;;14.50;51.71;98110.25;4956788;28;19965;-83
2021/09/03 08:13:38;;;;;;;;;;;;;;;14.54;52.84;98105.66;4958877;28;19932;-81
2021/09/03 08:16:04;;;;;;;;;;;;;;;14.60;52.29;98098.66;4958100;28;19969;-82
2021/09/03 08:18:32;;;;;;;;;;;;;;;14.62;52.21;98095.56;4958431;28;19925;-81
2021/09/03 08:20:58;;;;;;;;;;;;;;;14.65;53.51;98095.63;4957297;28;20363;-80
2021/09/03 08:23:25;;;;;;;;;;;;;;;14.69;54.27;98087.41;4956525;28;20746;-82
2021/09/03 08:25:53;;;;;;;;;;;;;;;14.62;54.72;98090.84;4956918;28;19926;-80
2021/09/03 08:28:20;;;;;;;;;;;;;;;14.53;55.22;98093.84;4957792;28;19938;-83
2021/09/03 08:30:46;;;;;;;;;;;;;;;14.30;56.42;98093.88;4956685;28;19926;-82
2021/09/03 08:33:13;;;;;;;;;;;;;;;14.18;57.92;98104.25;4957282;28;19926;-80
2021/09/03 08:35:39;;;;;;;;;;;;;;;14.00;59.83;98099.22;4956267;28;19977;-80
2021/09/03 08:38:06;;;;;;;;;;;;;;;13.69;61.07;98104.94;4955490;28;19933;-80
2021/09/03 08:40:34;;;;;;;;;;;;;;;13.59;62.61;98098.06;4956381;28;19933;-81
2021/09/03 08:43:00;;;;;;;;;;;;;;;13.40;63.18;98104.34;4956034;28;19955;-83
2021/09/03 08:45:29;;;;;;;;;;;;;;;13.30;63.43;98102.97;4954477;28;19933;-81
2021/09/03 08:47:56;;;;;;;;;;;;;;;13.20;63.42;98105.47;4954543;28;19934;-82
2021/09/03 08:50:22;;;;;;;;;;;;;;;13.09;64.53;98097.81;4955717;28;19926;-80
2021/09/03 08:52:49;;;;;;;;;;;;;;;13.20;65.90;98102.72;4955175;28;20268;-79
2021/09/03 08:55:17;;;;;;;;;;;;;;;13.31;65.59;98099.09;4955163;28;19926;-79
2021/09/03 08:57:43;;;;;;;;;;;;;;;13.37;66.92;98086.66;4954984;28;20360;-79
2021/09/03 09:00:20;;;;;;;;;;;;;;;13.40;66.63;98091.41;4954207;28;19926;-81
2021/09/03 09:03:03;;;;;;;;;;;;;;;13.25;66.36;98092.31;4953164;28;19957;-80
2021/09/03 09:05:47;;;;;;;;;;;;;;;13.17;66.07;98088.56;4952741;28;19926;-80
2021/09/03 09:08:16;;;;;;;;;;;;;;;13.11;66.07;98081.78;4954065;28;19936;-85
2021/09/03 09:11:03;;;;;;;;;;;;;;;13.15;65.88;98088.16;4953461;28;19930;-77
2021/09/03 09:13:31;;;;;;;;;;;;;;;13.13;66.11;98089.66;4953882;28;19958;-84
2021/09/03 09:15:58;;;;;;;;;;;;;;;13.07;64.66;98093.81;4952584;28;19926;-85
2021/09/03 09:18:36;;;;;;;;;;;;;;;13.05;64.98;98098.91;4938211;28;20839;-83
2021/09/03 09:21:07;;;;;;;;;;;;;;;13.19;65.16;98088.22;4953043;28;19926;-85
2021/09/03 09:23:42;;;;;;;;;;;;;;;13.19;65.56;98084.69;4957268;28;19926;-83
2021/09/03 09:26:09;;;;;;;;;;;;;;;13.13;64.07;98084.97;4956059;28;20024;-83
2021/09/03 09:28:35;;;;;;;;;;;;;;;13.17;64.91;98074.06;4955024;28;19933;-82
2021/09/03 09:31:01;;;;;;;;;;;;;;;13.32;64.32;98070.50;4955931;28;19934;-81
2021/09/03 09:33:27;;;;;;;;;;;;;;;13.58;64.13;98064.34;4955789;28;19954;-77
2021/09/03 09:35:54;;;;;;;;;;;;;;;13.55;63.40;98078.00;4955875;28;20303;-82
2021/09/03 09:38:21;;;;;;;;;;;;;;;13.55;64.07;98056.81;4955278;28;19930;-83
2021/09/03 09:40:52;;;;;;;;;;;;;;;13.54;63.31;98059.91;4953726;28;19926;-82
2021/09/03 09:43:25;;;;;;;;;;;;;;;13.56;63.18;98060.34;4955079;28;19934;-82
2021/09/03 09:46:10;;;;;;;;;;;;;;;13.49;62.46;98049.25;4954520;28;20235;-83
2021/09/03 09:48:49;;;;;;;;;;;;;;;13.53;63.16;98061.06;4973709;28;19930;-83
2021/09/03 09:51:27;;;;;;;;;;;;;;;13.53;62.82;98056.38;4974358;28;20020;-83
2021/09/03 09:54:10;;;;;;;;;;;;;;;13.41;63.73;98042.84;4976080;28;19981;-83
2021/09/03 09:56:42;;;;;;;;;;;;;;;13.40;63.83;98049.44;4976039;28;19926;-82
2021/09/03 09:59:09;;;;;;;;;;;;;;;13.25;63.68;98045.66;4976133;28;19981;-82
2021/09/03 10:01:37;;;;;;;;;;;;;;;13.22;64.09;98046.34;4975556;28;19932;-83
2021/09/03 10:04:04;;;;;;;;;;;;;;;13.28;63.66;98039.44;4975766;28;19992;-83
2021/09/03 10:06:31;;;;;;;;;;;;;;;13.27;64.15;98037.03;4975845;28;19942;-83
2021/09/03 10:08:58;;;;;;;;;;;;;;;13.20;63.96;98045.09;4975561;28;19926;-83
2021/09/03 10:11:24;;;;;;;;;;;;;;;13.23;64.15;98050.66;4975267;28;19926;-83
2021/09/03 10:13:51;;;;;;;;;;;;;;;13.28;64.68;98061.41;4974180;28;19992;-83
2021/09/03 10:16:17;;;;;;;;;;;;;;;13.24;64.69;98062.44;4975835;28;19923;-84
2021/09/03 10:18:44;;;;;;;;;;;;;;;13.29;64.33;98062.19;4975729;28;20065;-84
2021/09/03 10:21:10;;;;;;;;;;;;;;;13.18;64.02;98045.47;4974133;28;20017;-83
2021/09/03 10:23:50;;;;;;;;;;;;;;;13.21;64.34;98042.00;4975916;28;19926;-83
2021/09/03 10:26:21;;;;;;;;;;;;;;;13.20;64.75;98039.63;4975710;28;19973;-83
2021/09/03 10:28:47;;;;;;;;;;;;;;;13.14;64.75;98042.66;4974521;28;19926;-83
2021/09/03 10:31:18;;;;;;;;;;;;;;;13.11;65.18;98042.56;4975390;28;19962;-86
2021/09/03 10:33:46;;;;;;;;;;;;;;;13.01;65.56;98035.69;4975326;28;20390;-83
2021/09/03 10:36:12;;;;;;;;;;;;;;;12.96;65.58;98038.75;4975451;28;19953;-83
2021/09/03 10:38:41;;;;;;;;;;;;;;;12.93;66.00;98037.50;4973870;28;19961;-83
2021/09/03 10:41:07;;;;;;;;;;;;;;;12.90;66.35;98030.00;4975611;28;19926;-83
2021/09/03 10:43:41;;;;;;;;;;;;;;;12.89;66.68;98035.84;4974876;28;20311;-83
2021/09/03 10:46:09;;;;;;;;;;;;;;;12.77;68.14;98028.53;4975257;28;19949;-84
2021/09/03 10:48:35;;;;;;;;;;;;;;;12.71;67.64;98038.19;4974912;28;19933;-83
2021/09/03 10:51:03;;;;;;;;;;;;;;;12.71;68.23;98021.75;4975191;28;19926;-83
2021/09/03 10:53:32;;;;;;;;;;;;;;;12.74;68.16;98004.56;4973631;28;20387;-83
2021/09/03 10:55:58;;;;;;;;;;;;;;;12.73;68.20;97997.53;4975384;28;19926;-83
2021/09/03 10:58:31;;;;;;;;;;;;;;;12.80;69.10;98013.31;4973780;28;19926;-80
2021/09/03 11:01:13;;;;;;;;;;;;;;;12.83;68.45;98004.38;4974619;28;19988;-77
2021/09/03 11:03:44;;;;;;;;;;;;;;;12.91;67.73;98017.06;4974405;28;19926;-77
2021/09/03 11:06:13;;;;;;;;;;;;;;;12.92;67.45;98024.97;4974907;28;20407;-81
2021/09/03 11:08:46;;;;;;;;;;;;;;;12.91;67.60;98009.66;4974848;28;19930;-90
2021/09/03 11:11:22;;;;;;;;;;;;;;;12.84;67.63;97998.53;4974403;28;19926;-86
2021/09/03 11:13:52;;;;;;;;;;;;;;;12.90;67.81;97999.84;4974375;28;20478;-84
2021/09/03 11:16:33;;;;;;;;;;;;;;;12.93;67.72;97996.38;4973629;28;19945;-84
2021/09/03 11:19:07;;;;;;;;;;;;;;;13.01;67.42;97993.75;4971427;28;19926;-85
2021/09/03 11:21:41;;;;;;;;;;;;;;;13.05;67.14;97983.69;4973632;28;19957;-87
2021/09/03 11:24:08;;;;;;;;;;;;;;;13.00;66.97;97976.53;4972721;28;19937;-85
2021/09/03 11:26:35;;;;;;;;;;;;;;;12.97;66.67;97982.72;4973950;28;19970;-84
2021/09/03 11:29:05;;;;;;;;;;;;;;;13.05;66.25;97978.19;4974235;28;20431;-86
2021/09/03 11:31:35;;;;;;;;;;;;;;;13.11;66.55;97977.53;4973155;28;19926;-85
2021/09/03 11:34:06;;;;;;;;;;;;;;;13.12;66.17;97970.09;4971050;28;19930;-85
2021/09/03 11:36:46;;;;;;;;;;;;;;;13.08;65.95;97972.00;4974288;28;19926;-85
2021/09/03 11:39:16;;;;;;;;;;;;;;;13.09;66.42;97968.88;4974357;28;20012;-88
2021/09/03 11:41:50;;;;;;;;;;;;;;;13.14;66.16;97957.63;4974196;28;20076;-85
2021/09/03 11:44:16;;;;;;;;;;;;;;;13.38;66.02;97952.97;4973619;28;20335;-86
2021/09/03 11:46:42;;;;;;;;;;;;;;;13.60;65.26;97945.91;4973591;28;19932;-84
2021/09/03 11:49:09;;;;;;;;;;;;;;;13.82;64.25;97938.81;4972812;28;19958;-84
2021/09/03 11:51:35;;;;;;;;;;;;;;;14.03;64.30;97952.06;4973910;28;20431;-85
2021/09/03 11:54:02;;;;;;;;;;;;;;;14.20;63.44;97940.56;4973729;28;19926;-85
2021/09/03 11:56:28;;;;;;;;;;;;;;;14.29;62.69;97930.09;4973436;28;19967;-84
2021/09/03 11:58:54;;;;;;;;;;;;;;;14.24;62.67;97913.94;4973695;28;20303;-85
2021/09/03 12:01:20;;;;;;;;;;;;;;;14.18;61.86;97907.19;4972246;28;19926;-88
2021/09/03 12:03:48;;;;;;;;;;;;;;;14.24;62.76;97904.91;4973652;28;19932;-84
2021/09/03 12:06:16;;;;;;;;;;;;;;;14.25;62.85;97907.25;4972201;28;19933;-86
2021/09/03 12:08:45;;;;;;;;;;;;;;;14.33;62.92;97900.69;4972576;28;19932;-80
2021/09/03 12:11:17;;;;;;;;;;;;;;;14.29;62.02;97882.56;4973112;28;19970;-81
2021/09/03 12:13:55;;;;;;;;;;;;;;;14.34;62.49;97883.06;4972519;28;19930;-88
2021/09/03 12:16:24;;;;;;;;;;;;;;;14.32;62.56;97876.34;4972067;28;19926;-88
2021/09/03 12:18:52;;;;;;;;;;;;;;;14.42;61.75;97863.91;4972777;28;19930;-90
2021/09/03 12:21:20;;;;;;;;;;;;;;;14.59;62.04;97862.56;4971162;28;19934;-86
2021/09/03 12:23:58;;;;;;;;;;;;;;;14.95;61.55;97856.28;4972262;28;20029;-86
2021/09/03 12:26:24;;;;;;;;;;;;;;;15.28;60.16;97858.16;4970545;28;19958;-87
2021/09/03 12:28:52;;;;;;;;;;;;;;;15.63;60.58;97845.88;4969817;28;19980;-85
2021/09/03 12:31:22;;;;;;;;;;;;;;;15.97;58.55;97846.50;4959541;28;19927;-86
2021/09/03 12:33:53;;;;;;;;;;;;;;;16.04;58.04;97831.19;4969614;28;19933;-86
2021/09/03 12:36:23;;;;;;;;;;;;;;;16.03;57.80;97818.59;4953550;28;19933;-86
2021/09/03 12:38:51;;;;;;;;;;;;;;;16.00;56.98;97811.88;4967105;28;20295;-82
2021/09/03 12:41:20;;;;;;;;;;;;;;;15.90;56.52;97815.38;4945893;28;19937;-87
2021/09/03 12:43:50;;;;;;;;;;;;;;;15.69;57.34;97814.06;4968593;28;19989;-85
2021/09/03 12:46:16;;;;;;;;;;;;;;;15.61;58.16;97789.56;4964164;28;20423;-86
2021/09/03 12:48:46;;;;;;;;;;;;;;;15.61;58.56;97793.13;4969555;28;19985;-85
2021/09/03 12:51:19;;;;;;;;;;;;;;;15.51;58.13;97782.81;4963093;28;20462;-85